sensor_id;sensor_type;location;lat;lon;timestamp;pressure;altitude;pressure_sealevel;temperature;humidity
12781;BME280;6454;43.304;24.344;2023-02-15T00:01:25;101778.03;;;-0.03;82.80
12781;BME280;6454;43.304;24.344;2023-02-15T00:03:52;101777.75;;;-0.08;82.96
12781;BME280;6454;43.304;24.344;2023-02-15T00:06:19;101777.75;;;-0.08;82.87
12781;BME280;6454;43.304;24.344;2023-02-15T00:08:45;101779.75;;;-0.10;83.41
12781;BME280;6454;43.304;24.344;2023-02-15T00:11:14;101682.59;;;-0.61;83.15
12781;BME280;6454;43.304;24.344;2023-02-15T00:13:43;101774.72;;;-0.05;82.67
12781;BME280;6454;43.304;24.344;2023-02-15T00:16:11;101773.88;;;-0.06;82.11
12781;BME280;6454;43.304;24.344;2023-02-15T00:18:39;101770.09;;;-0.11;82.35
12781;BME280;6454;43.304;24.344;2023-02-15T00:21:07;101766.44;;;-0.10;82.17
12781;BME280;6454;43.304;24.344;2023-02-15T00:23:35;101761.97;;;-0.18;82.37
12781;BME280;6454;43.304;24.344;2023-02-15T00:26:05;101726.03;;;-0.52;82.93
12781;BME280;6454;43.304;24.344;2023-02-15T00:28:33;101765.88;;;-0.28;82.78
12781;BME280;6454;43.304;24.344;2023-02-15T00:31:06;101770.06;;;-0.34;83.81
12781;BME280;6454;43.304;24.344;2023-02-15T00:33:33;101765.38;;;-0.32;82.99
12781;BME280;6454;43.304;24.344;2023-02-15T00:36:00;101754.06;;;-0.34;82.45
12781;BME280;6454;43.304;24.344;2023-02-15T00:38:29;101765.41;;;-0.40;82.16
12781;BME280;6454;43.304;24.344;2023-02-15T00:40:57;101772.31;;;-0.45;82.45
12781;BME280;6454;43.304;24.344;2023-02-15T00:43:24;101706.41;;;-0.90;83.26
12781;BME280;6454;43.304;24.344;2023-02-15T00:45:51;101765.13;;;-0.45;83.67
12781;BME280;6454;43.304;24.344;2023-02-15T00:48:20;101771.94;;;-0.42;82.97
12781;BME280;6454;43.304;24.344;2023-02-15T00:50:50;101767.13;;;-0.47;82.80
12781;BME280;6454;43.304;24.344;2023-02-15T00:53:17;101780.34;;;-0.53;82.68
12781;BME280;6454;43.304;24.344;2023-02-15T00:55:44;101655.56;;;-1.42;83.70
12781;BME280;6454;43.304;24.344;2023-02-15T00:58:11;101775.34;;;-0.56;83.92
12781;BME280;6454;43.304;24.344;2023-02-15T01:00:40;101594.09;;;-1.71;83.81
12781;BME280;6454;43.304;24.344;2023-02-15T01:03:07;101749.78;;;-0.74;84.36
12781;BME280;6454;43.304;24.344;2023-02-15T01:05:36;101776.72;;;-0.60;84.28
12781;BME280;6454;43.304;24.344;2023-02-15T01:08:03;101690.59;;;-1.31;84.86
12781;BME280;6454;43.304;24.344;2023-02-15T01:10:30;101773.56;;;-0.64;85.23
12781;BME280;6454;43.304;24.344;2023-02-15T01:12:57;101703.50;;;-1.11;84.89
12781;BME280;6454;43.304;24.344;2023-02-15T01:15:23;101769.25;;;-0.65;85.24
12781;BME280;6454;43.304;24.344;2023-02-15T01:17:50;101746.25;;;-0.66;84.73
12781;BME280;6454;43.304;24.344;2023-02-15T01:20:18;101758.94;;;-0.68;84.94
12781;BME280;6454;43.304;24.344;2023-02-15T01:22:47;101763.09;;;-0.74;85.36
12781;BME280;6454;43.304;24.344;2023-02-15T01:25:15;101764.25;;;-0.68;85.39
12781;BME280;6454;43.304;24.344;2023-02-15T01:27:43;101654.19;;;-1.38;84.93
12781;BME280;6454;43.304;24.344;2023-02-15T01:30:10;101747.09;;;-0.66;85.49
12781;BME280;6454;43.304;24.344;2023-02-15T01:32:37;101680.50;;;-1.04;85.63
12781;BME280;6454;43.304;24.344;2023-02-15T01:35:05;101749.97;;;-0.75;86.22
12781;BME280;6454;43.304;24.344;2023-02-15T01:37:32;101754.25;;;-0.66;87.38
12781;BME280;6454;43.304;24.344;2023-02-15T01:40:01;101732.72;;;-0.56;89.91
12781;BME280;6454;43.304;24.344;2023-02-15T01:42:29;101738.00;;;-0.48;90.29
12781;BME280;6454;43.304;24.344;2023-02-15T01:44:57;101660.06;;;-0.81;89.13
12781;BME280;6454;43.304;24.344;2023-02-15T01:47:31;101577.44;;;-1.26;87.41
12781;BME280;6454;43.304;24.344;2023-02-15T01:50:04;101658.88;;;-0.79;86.99
12781;BME280;6454;43.304;24.344;2023-02-15T01:52:36;101733.72;;;-0.35;87.14
12781;BME280;6454;43.304;24.344;2023-02-15T01:55:07;101731.38;;;-0.30;88.23
12781;BME280;6454;43.304;24.344;2023-02-15T01:57:35;101733.53;;;-0.25;88.71
12781;BME280;6454;43.304;24.344;2023-02-15T02:00:05;101731.59;;;-0.17;90.71
12781;BME280;6454;43.304;24.344;2023-02-15T02:02:33;101733.38;;;-0.09;91.37
12781;BME280;6454;43.304;24.344;2023-02-15T02:05:02;101736.47;;;0.03;90.28
12781;BME280;6454;43.304;24.344;2023-02-15T02:07:34;101726.75;;;0.10;90.31
12781;BME280;6454;43.304;24.344;2023-02-15T02:10:07;101729.88;;;0.13;90.66
12781;BME280;6454;43.304;24.344;2023-02-15T02:12:35;101729.81;;;0.21;89.99
12781;BME280;6454;43.304;24.344;2023-02-15T02:15:04;101734.34;;;0.35;86.94
12781;BME280;6454;43.304;24.344;2023-02-15T02:17:40;101735.38;;;0.34;85.73
12781;BME280;6454;43.304;24.344;2023-02-15T02:20:30;101736.28;;;0.27;85.85
12781;BME280;6454;43.304;24.344;2023-02-15T02:23:29;101633.78;;;-0.39;85.10
12781;BME280;6454;43.304;24.344;2023-02-15T02:35:23;101742.97;;;0.23;86.66
12781;BME280;6454;43.304;24.344;2023-02-15T02:38:02;101740.69;;;0.20;86.78
12781;BME280;6454;43.304;24.344;2023-02-15T02:40:39;101739.66;;;0.21;86.83
12781;BME280;6454;43.304;24.344;2023-02-15T02:43:14;101739.09;;;0.25;86.26
12781;BME280;6454;43.304;24.344;2023-02-15T02:45:49;101746.31;;;0.25;86.59
12781;BME280;6454;43.304;24.344;2023-02-15T02:48:20;101683.25;;;-0.14;86.63
12781;BME280;6454;43.304;24.344;2023-02-15T02:50:49;101742.44;;;0.27;85.35
12781;BME280;6454;43.304;24.344;2023-02-15T02:53:16;101702.06;;;0.08;85.46
12781;BME280;6454;43.304;24.344;2023-02-15T02:55:46;101744.63;;;0.24;85.92
12781;BME280;6454;43.304;24.344;2023-02-15T02:58:17;101748.06;;;0.32;85.34
12781;BME280;6454;43.304;24.344;2023-02-15T03:00:50;101741.41;;;0.28;85.09
12781;BME280;6454;43.304;24.344;2023-02-15T03:03:21;101677.22;;;-0.30;84.61
12781;BME280;6454;43.304;24.344;2023-02-15T03:05:54;101741.53;;;0.35;84.83
12781;BME280;6454;43.304;24.344;2023-02-15T03:08:26;101747.59;;;0.29;85.12
12781;BME280;6454;43.304;24.344;2023-02-15T03:10:58;101752.94;;;0.29;85.31
12781;BME280;6454;43.304;24.344;2023-02-15T03:13:26;101756.53;;;0.36;84.36
12781;BME280;6454;43.304;24.344;2023-02-15T03:15:54;101754.94;;;0.27;83.96
12781;BME280;6454;43.304;24.344;2023-02-15T03:18:44;101757.13;;;0.23;85.39
12781;BME280;6454;43.304;24.344;2023-02-15T03:21:21;101764.59;;;0.28;85.31
12781;BME280;6454;43.304;24.344;2023-02-15T03:23:55;101691.53;;;-0.09;84.13
12781;BME280;6454;43.304;24.344;2023-02-15T03:26:24;101659.06;;;-0.35;84.09
12781;BME280;6454;43.304;24.344;2023-02-15T03:28:55;101771.97;;;0.26;84.61
12781;BME280;6454;43.304;24.344;2023-02-15T03:31:26;101775.13;;;0.29;84.22
12781;BME280;6454;43.304;24.344;2023-02-15T03:33:57;101774.91;;;0.31;83.78
12781;BME280;6454;43.304;24.344;2023-02-15T03:36:30;101775.94;;;0.30;83.99
12781;BME280;6454;43.304;24.344;2023-02-15T03:39:08;101781.00;;;0.25;85.04
12781;BME280;6454;43.304;24.344;2023-02-15T03:41:40;101796.28;;;0.31;85.19
12781;BME280;6454;43.304;24.344;2023-02-15T03:44:12;101781.38;;;0.36;85.31
12781;BME280;6454;43.304;24.344;2023-02-15T03:46:45;101782.22;;;0.37;86.00
12781;BME280;6454;43.304;24.344;2023-02-15T03:49:17;101787.06;;;0.33;87.06
12781;BME280;6454;43.304;24.344;2023-02-15T03:51:49;101788.94;;;0.47;86.33
12781;BME280;6454;43.304;24.344;2023-02-15T03:54:19;101723.41;;;0.08;85.61
12781;BME280;6454;43.304;24.344;2023-02-15T03:57:01;101793.78;;;0.52;86.02
12781;BME280;6454;43.304;24.344;2023-02-15T03:59:42;101806.72;;;0.55;85.42
12781;BME280;6454;43.304;24.344;2023-02-15T04:02:28;101807.41;;;0.57;84.50
12781;BME280;6454;43.304;24.344;2023-02-15T04:05:00;101796.59;;;0.50;84.74
12781;BME280;6454;43.304;24.344;2023-02-15T04:07:28;101808.41;;;0.56;84.02
12781;BME280;6454;43.304;24.344;2023-02-15T04:09:55;101808.75;;;0.53;83.78
12781;BME280;6454;43.304;24.344;2023-02-15T04:12:40;101807.81;;;0.46;84.29
12781;BME280;6454;43.304;24.344;2023-02-15T04:15:08;101816.09;;;0.36;85.22
12781;BME280;6454;43.304;24.344;2023-02-15T04:17:55;101813.53;;;0.43;85.16
12781;BME280;6454;43.304;24.344;2023-02-15T04:20:22;101720.78;;;-0.15;84.37
12781;BME280;6454;43.304;24.344;2023-02-15T04:23:07;101807.50;;;0.26;83.24
12781;BME280;6454;43.304;24.344;2023-02-15T04:25:51;101825.34;;;0.26;84.12
12781;BME280;6454;43.304;24.344;2023-02-15T04:28:18;101714.59;;;-0.38;84.16
12781;BME280;6454;43.304;24.344;2023-02-15T04:30:46;101823.59;;;0.33;83.61
12781;BME280;6454;43.304;24.344;2023-02-15T04:33:13;101519.78;;;-1.65;83.43
12781;BME280;6454;43.304;24.344;2023-02-15T04:35:40;101790.19;;;-0.01;84.27
12781;BME280;6454;43.304;24.344;2023-02-15T04:38:08;101816.38;;;0.19;84.03
12781;BME280;6454;43.304;24.344;2023-02-15T04:40:35;101682.84;;;-0.71;83.56
12781;BME280;6454;43.304;24.344;2023-02-15T04:43:02;101815.69;;;0.02;83.82
12781;BME280;6454;43.304;24.344;2023-02-15T04:45:29;101821.66;;;0.04;83.85
12781;BME280;6454;43.304;24.344;2023-02-15T04:47:55;101814.50;;;0.05;83.74
12781;BME280;6454;43.304;24.344;2023-02-15T04:50:22;101818.50;;;0.00;83.36
12781;BME280;6454;43.304;24.344;2023-02-15T04:52:49;101745.81;;;-0.47;83.44
12781;BME280;6454;43.304;24.344;2023-02-15T04:55:17;101727.94;;;-0.69;84.21
12781;BME280;6454;43.304;24.344;2023-02-15T04:57:45;101835.41;;;-0.07;84.93
12781;BME280;6454;43.304;24.344;2023-02-15T05:00:13;101835.88;;;-0.04;84.77
12781;BME280;6454;43.304;24.344;2023-02-15T05:02:39;101728.75;;;-0.99;84.22
12781;BME280;6454;43.304;24.344;2023-02-15T05:05:07;101732.13;;;-0.75;84.72
12781;BME280;6454;43.304;24.344;2023-02-15T05:07:38;101813.03;;;-0.29;84.39
12781;BME280;6454;43.304;24.344;2023-02-15T05:10:05;101817.19;;;-0.26;83.88
12781;BME280;6454;43.304;24.344;2023-02-15T05:12:34;101823.00;;;-0.23;84.29
12781;BME280;6454;43.304;24.344;2023-02-15T05:15:01;101867.59;;;-0.09;84.74
12781;BME280;6454;43.304;24.344;2023-02-15T05:17:27;101855.41;;;-0.03;85.58
12781;BME280;6454;43.304;24.344;2023-02-15T05:19:54;101863.22;;;-0.02;84.60
12781;BME280;6454;43.304;24.344;2023-02-15T05:22:21;101871.88;;;0.00;83.73
12781;BME280;6454;43.304;24.344;2023-02-15T05:24:48;101873.63;;;-0.15;84.03
12781;BME280;6454;43.304;24.344;2023-02-15T05:27:34;101874.94;;;-0.11;84.03
12781;BME280;6454;43.304;24.344;2023-02-15T05:30:18;101876.13;;;-0.13;84.23
12781;BME280;6454;43.304;24.344;2023-02-15T05:32:45;101880.13;;;-0.17;84.11
12781;BME280;6454;43.304;24.344;2023-02-15T05:35:13;101879.81;;;-0.22;84.48
12781;BME280;6454;43.304;24.344;2023-02-15T05:37:40;101881.19;;;-0.26;85.50
12781;BME280;6454;43.304;24.344;2023-02-15T05:40:08;101878.47;;;-0.18;85.16
12781;BME280;6454;43.304;24.344;2023-02-15T05:42:36;101889.63;;;-0.15;85.12
12781;BME280;6454;43.304;24.344;2023-02-15T05:45:04;101886.00;;;-0.22;84.80
12781;BME280;6454;43.304;24.344;2023-02-15T05:47:31;101884.84;;;-0.27;85.92
12781;BME280;6454;43.304;24.344;2023-02-15T05:49:58;101879.47;;;-0.19;87.17
12781;BME280;6454;43.304;24.344;2023-02-15T05:52:24;101889.94;;;-0.10;88.23
12781;BME280;6454;43.304;24.344;2023-02-15T05:54:51;101748.78;;;-1.19;88.38
12781;BME280;6454;43.304;24.344;2023-02-15T05:57:18;101893.63;;;-0.11;88.29
12781;BME280;6454;43.304;24.344;2023-02-15T05:59:46;101894.38;;;-0.02;89.43
12781;BME280;6454;43.304;24.344;2023-02-15T06:02:13;101895.81;;;0.17;89.76
12781;BME280;6454;43.304;24.344;2023-02-15T06:04:40;101815.47;;;-0.19;89.01
12781;BME280;6454;43.304;24.344;2023-02-15T06:07:06;101893.72;;;0.27;89.14
12781;BME280;6454;43.304;24.344;2023-02-15T06:09:33;101905.31;;;0.42;89.21
12781;BME280;6454;43.304;24.344;2023-02-15T06:12:00;101806.88;;;-0.07;89.54
12781;BME280;6454;43.304;24.344;2023-02-15T06:14:27;101909.97;;;0.62;89.00
12781;BME280;6454;43.304;24.344;2023-02-15T06:16:55;101908.78;;;0.65;89.15
12781;BME280;6454;43.304;24.344;2023-02-15T06:19:22;101914.84;;;0.82;89.19
12781;BME280;6454;43.304;24.344;2023-02-15T06:21:49;101909.63;;;0.88;89.02
12781;BME280;6454;43.304;24.344;2023-02-15T06:24:16;101777.00;;;-0.02;89.12
12781;BME280;6454;43.304;24.344;2023-02-15T06:26:42;101918.31;;;1.05;89.93
12781;BME280;6454;43.304;24.344;2023-02-15T06:29:09;101902.81;;;1.00;89.77
12781;BME280;6454;43.304;24.344;2023-02-15T06:31:36;101820.22;;;0.61;89.40
12781;BME280;6454;43.304;24.344;2023-02-15T06:34:04;101908.41;;;1.28;89.29
12781;BME280;6454;43.304;24.344;2023-02-15T06:36:31;101901.13;;;1.37;89.70
12781;BME280;6454;43.304;24.344;2023-02-15T06:38:58;101909.31;;;1.50;89.34
12781;BME280;6454;43.304;24.344;2023-02-15T06:41:25;101905.38;;;1.60;89.50
12781;BME280;6454;43.304;24.344;2023-02-15T06:43:51;101912.47;;;1.68;89.81
12781;BME280;6454;43.304;24.344;2023-02-15T06:46:18;101845.91;;;1.44;89.26
12781;BME280;6454;43.304;24.344;2023-02-15T06:48:45;101914.09;;;1.98;89.35
12781;BME280;6454;43.304;24.344;2023-02-15T06:51:13;101918.56;;;2.12;89.44
12781;BME280;6454;43.304;24.344;2023-02-15T06:53:40;101848.44;;;1.81;89.06
12781;BME280;6454;43.304;24.344;2023-02-15T06:56:09;101919.63;;;2.32;88.66
12781;BME280;6454;43.304;24.344;2023-02-15T06:58:37;101894.00;;;2.23;88.32
12781;BME280;6454;43.304;24.344;2023-02-15T07:01:05;101911.00;;;2.51;87.83
12781;BME280;6454;43.304;24.344;2023-02-15T07:03:32;101916.47;;;2.65;87.72
12781;BME280;6454;43.304;24.344;2023-02-15T07:06:01;101864.06;;;2.34;86.60
12781;BME280;6454;43.304;24.344;2023-02-15T07:08:32;101914.16;;;2.83;86.30
12781;BME280;6454;43.304;24.344;2023-02-15T07:10:59;101908.06;;;2.89;86.30
12781;BME280;6454;43.304;24.344;2023-02-15T07:13:40;101908.72;;;2.97;85.39
12781;BME280;6454;43.304;24.344;2023-02-15T07:16:08;101911.06;;;3.07;84.99
12781;BME280;6454;43.304;24.344;2023-02-15T07:18:35;101912.41;;;3.17;84.62
12781;BME280;6454;43.304;24.344;2023-02-15T07:21:02;101914.09;;;3.25;84.42
12781;BME280;6454;43.304;24.344;2023-02-15T07:23:29;101880.22;;;3.17;83.97
12781;BME280;6454;43.304;24.344;2023-02-15T07:25:58;101915.22;;;3.37;83.72
12781;BME280;6454;43.304;24.344;2023-02-15T07:28:25;101909.31;;;3.48;83.76
12781;BME280;6454;43.304;24.344;2023-02-15T07:30:52;101908.72;;;3.53;83.31
12781;BME280;6454;43.304;24.344;2023-02-15T07:33:18;101900.31;;;3.62;83.07
12781;BME280;6454;43.304;24.344;2023-02-15T07:35:53;101904.50;;;3.71;83.00
12781;BME280;6454;43.304;24.344;2023-02-15T07:38:22;101898.31;;;3.77;82.43
12781;BME280;6454;43.304;24.344;2023-02-15T07:40:50;101915.91;;;3.86;81.78
12781;BME280;6454;43.304;24.344;2023-02-15T07:43:18;101912.66;;;3.98;81.22
12781;BME280;6454;43.304;24.344;2023-02-15T07:45:45;101913.91;;;4.02;80.49
12781;BME280;6454;43.304;24.344;2023-02-15T07:48:12;101906.50;;;4.04;80.74
12781;BME280;6454;43.304;24.344;2023-02-15T07:50:38;101914.56;;;4.10;81.15
12781;BME280;6454;43.304;24.344;2023-02-15T07:53:05;101914.19;;;4.20;80.95
12781;BME280;6454;43.304;24.344;2023-02-15T07:55:32;101915.47;;;4.30;80.22
12781;BME280;6454;43.304;24.344;2023-02-15T07:57:58;101919.22;;;4.36;79.78
12781;BME280;6454;43.304;24.344;2023-02-15T08:00:27;101899.34;;;4.30;79.34
12781;BME280;6454;43.304;24.344;2023-02-15T08:02:55;101911.19;;;4.55;78.22
12781;BME280;6454;43.304;24.344;2023-02-15T08:05:42;101908.50;;;4.62;77.96
12781;BME280;6454;43.304;24.344;2023-02-15T08:08:10;101897.78;;;4.69;77.96
12781;BME280;6454;43.304;24.344;2023-02-15T08:10:58;101908.13;;;4.78;78.35
12781;BME280;6454;43.304;24.344;2023-02-15T08:13:43;101901.06;;;4.84;78.40
12781;BME280;6454;43.304;24.344;2023-02-15T08:16:22;101891.56;;;4.94;77.91
12781;BME280;6454;43.304;24.344;2023-02-15T08:18:48;101901.72;;;5.05;77.16
12781;BME280;6454;43.304;24.344;2023-02-15T08:21:15;101903.56;;;5.18;77.63
12781;BME280;6454;43.304;24.344;2023-02-15T08:23:42;101898.59;;;5.21;76.57
12781;BME280;6454;43.304;24.344;2023-02-15T08:26:09;101905.00;;;5.27;75.82
12781;BME280;6454;43.304;24.344;2023-02-15T08:28:36;101904.78;;;5.42;76.31
12781;BME280;6454;43.304;24.344;2023-02-15T08:31:06;101898.56;;;5.48;75.88
12781;BME280;6454;43.304;24.344;2023-02-15T08:33:35;101898.94;;;5.51;75.35
12781;BME280;6454;43.304;24.344;2023-02-15T08:36:03;101897.28;;;5.57;75.65
12781;BME280;6454;43.304;24.344;2023-02-15T08:38:30;101908.44;;;5.67;75.12
12781;BME280;6454;43.304;24.344;2023-02-15T08:40:57;101914.66;;;5.67;74.03
12781;BME280;6454;43.304;24.344;2023-02-15T08:43:24;101904.06;;;5.79;73.98
12781;BME280;6454;43.304;24.344;2023-02-15T08:45:51;101909.25;;;5.87;73.86
12781;BME280;6454;43.304;24.344;2023-02-15T08:48:18;101905.53;;;5.88;73.30
12781;BME280;6454;43.304;24.344;2023-02-15T08:50:46;101908.41;;;5.93;72.94
12781;BME280;6454;43.304;24.344;2023-02-15T08:53:12;101904.22;;;5.97;72.31
12781;BME280;6454;43.304;24.344;2023-02-15T08:55:39;101908.38;;;6.00;71.87
12781;BME280;6454;43.304;24.344;2023-02-15T08:58:06;101913.28;;;6.09;71.34
12781;BME280;6454;43.304;24.344;2023-02-15T09:00:33;101843.78;;;5.80;71.12
12781;BME280;6454;43.304;24.344;2023-02-15T09:02:59;101902.88;;;6.19;71.20
12781;BME280;6454;43.304;24.344;2023-02-15T09:05:26;101905.34;;;6.27;70.51
12781;BME280;6454;43.304;24.344;2023-02-15T09:07:54;101902.81;;;6.32;70.64
12781;BME280;6454;43.304;24.344;2023-02-15T09:10:21;101905.69;;;6.37;69.17
12781;BME280;6454;43.304;24.344;2023-02-15T09:12:48;101900.25;;;6.51;70.15
12781;BME280;6454;43.304;24.344;2023-02-15T09:15:16;101902.22;;;6.62;70.19
12781;BME280;6454;43.304;24.344;2023-02-15T09:17:43;101891.22;;;6.63;70.46
12781;BME280;6454;43.304;24.344;2023-02-15T09:20:10;101900.03;;;6.77;69.57
12781;BME280;6454;43.304;24.344;2023-02-15T09:22:37;101890.84;;;6.84;69.62
12781;BME280;6454;43.304;24.344;2023-02-15T09:25:06;101891.25;;;6.88;67.76
12781;BME280;6454;43.304;24.344;2023-02-15T09:27:32;101891.25;;;6.88;69.10
12781;BME280;6454;43.304;24.344;2023-02-15T09:29:59;101895.16;;;6.92;69.09
12781;BME280;6454;43.304;24.344;2023-02-15T09:32:26;101899.06;;;6.96;68.46
12781;BME280;6454;43.304;24.344;2023-02-15T09:34:53;101893.16;;;7.05;68.44
12781;BME280;6454;43.304;24.344;2023-02-15T09:37:20;101892.72;;;7.08;68.49
12781;BME280;6454;43.304;24.344;2023-02-15T09:39:46;101894.72;;;7.20;68.98
12781;BME280;6454;43.304;24.344;2023-02-15T09:42:29;101895.91;;;7.24;68.54
12781;BME280;6454;43.304;24.344;2023-02-15T09:45:11;101896.75;;;7.24;68.13
12781;BME280;6454;43.304;24.344;2023-02-15T09:48:01;101879.03;;;7.28;69.47
12781;BME280;6454;43.304;24.344;2023-02-15T09:50:33;101872.44;;;7.24;69.06
12781;BME280;6454;43.304;24.344;2023-02-15T09:53:25;101871.19;;;7.27;68.94
12781;BME280;6454;43.304;24.344;2023-02-15T09:56:03;101866.00;;;7.25;68.42
12781;BME280;6454;43.304;24.344;2023-02-15T09:58:41;101856.19;;;7.31;69.49
12781;BME280;6454;43.304;24.344;2023-02-15T10:01:18;101861.41;;;7.50;68.37
12781;BME280;6454;43.304;24.344;2023-02-15T10:04:00;101849.91;;;7.55;68.55
12781;BME280;6454;43.304;24.344;2023-02-15T10:06:37;101851.50;;;7.62;67.81
12781;BME280;6454;43.304;24.344;2023-02-15T10:09:17;101850.13;;;7.71;67.71
12781;BME280;6454;43.304;24.344;2023-02-15T10:12:01;101860.47;;;7.74;66.83
12781;BME280;6454;43.304;24.344;2023-02-15T10:14:50;101852.06;;;7.83;65.77
12781;BME280;6454;43.304;24.344;2023-02-15T10:17:35;101853.25;;;7.87;66.66
12781;BME280;6454;43.304;24.344;2023-02-15T10:20:21;101849.44;;;7.94;66.85
12781;BME280;6454;43.304;24.344;2023-02-15T10:23:05;101840.38;;;8.00;66.19
12781;BME280;6454;43.304;24.344;2023-02-15T10:25:41;101834.31;;;8.05;66.30
12781;BME280;6454;43.304;24.344;2023-02-15T10:28:15;101835.66;;;8.14;66.22
12781;BME280;6454;43.304;24.344;2023-02-15T10:30:47;101827.13;;;8.28;66.93
12781;BME280;6454;43.304;24.344;2023-02-15T10:33:23;101833.78;;;8.44;65.64
12781;BME280;6454;43.304;24.344;2023-02-15T10:36:01;101818.13;;;8.34;64.32
12781;BME280;6454;43.304;24.344;2023-02-15T10:38:37;101799.09;;;8.23;64.70
12781;BME280;6454;43.304;24.344;2023-02-15T10:41:17;101812.00;;;8.39;64.76
12781;BME280;6454;43.304;24.344;2023-02-15T10:44:06;101820.72;;;8.53;65.65
12781;BME280;6454;43.304;24.344;2023-02-15T10:46:50;101816.91;;;8.30;65.02
12781;BME280;6454;43.304;24.344;2023-02-15T10:49:43;101808.25;;;8.40;64.40
12781;BME280;6454;43.304;24.344;2023-02-15T10:52:22;101814.16;;;8.49;64.71
12781;BME280;6454;43.304;24.344;2023-02-15T10:55:02;101810.53;;;8.55;64.01
12781;BME280;6454;43.304;24.344;2023-02-15T10:57:40;101812.28;;;8.61;63.59
12781;BME280;6454;43.304;24.344;2023-02-15T11:00:12;101814.66;;;8.69;63.55
12781;BME280;6454;43.304;24.344;2023-02-15T11:05:39;101801.91;;;8.46;64.83
12781;BME280;6454;43.304;24.344;2023-02-15T11:08:10;101804.47;;;8.41;63.92
12781;BME280;6454;43.304;24.344;2023-02-15T11:10:39;101800.03;;;8.47;64.42
12781;BME280;6454;43.304;24.344;2023-02-15T11:13:11;101800.50;;;8.43;63.69
12781;BME280;6454;43.304;24.344;2023-02-15T11:15:42;101805.19;;;8.36;64.00
12781;BME280;6454;43.304;24.344;2023-02-15T11:18:15;101798.03;;;8.42;63.57
12781;BME280;6454;43.304;24.344;2023-02-15T11:20:51;101800.88;;;8.47;63.71
12781;BME280;6454;43.304;24.344;2023-02-15T11:23:20;101798.75;;;8.49;64.32
12781;BME280;6454;43.304;24.344;2023-02-15T11:25:54;101796.81;;;8.38;63.45
12781;BME280;6454;43.304;24.344;2023-02-15T11:28:25;101785.56;;;8.41;64.24
12781;BME280;6454;43.304;24.344;2023-02-15T11:30:56;101783.69;;;8.53;63.94
12781;BME280;6454;43.304;24.344;2023-02-15T11:33:30;101778.44;;;8.70;63.05
12781;BME280;6454;43.304;24.344;2023-02-15T11:36:02;101774.78;;;8.87;62.30
12781;BME280;6454;43.304;24.344;2023-02-15T11:38:32;101769.47;;;8.92;62.11
12781;BME280;6454;43.304;24.344;2023-02-15T11:41:02;101777.25;;;9.00;61.93
12781;BME280;6454;43.304;24.344;2023-02-15T11:43:34;101766.31;;;9.07;61.24
12781;BME280;6454;43.304;24.344;2023-02-15T11:46:03;101732.91;;;8.90;60.81
12781;BME280;6454;43.304;24.344;2023-02-15T11:48:31;101763.72;;;9.12;61.12
12781;BME280;6454;43.304;24.344;2023-02-15T11:50:59;101757.13;;;9.20;61.40
12781;BME280;6454;43.304;24.344;2023-02-15T11:53:29;101756.28;;;9.19;60.77
12781;BME280;6454;43.304;24.344;2023-02-15T11:55:58;101746.50;;;9.30;61.34
12781;BME280;6454;43.304;24.344;2023-02-15T11:58:32;101737.75;;;9.28;61.71
12781;BME280;6454;43.304;24.344;2023-02-15T12:01:08;101742.50;;;9.21;61.53
12781;BME280;6454;43.304;24.344;2023-02-15T12:03:44;101737.66;;;9.34;62.32
12781;BME280;6454;43.304;24.344;2023-02-15T12:06:22;101732.09;;;9.41;60.58
12781;BME280;6454;43.304;24.344;2023-02-15T12:08:55;101732.91;;;9.41;60.07
12781;BME280;6454;43.304;24.344;2023-02-15T12:11:31;101735.47;;;9.48;61.18
12781;BME280;6454;43.304;24.344;2023-02-15T12:14:00;101727.03;;;9.44;59.76
12781;BME280;6454;43.304;24.344;2023-02-15T12:16:31;101736.56;;;9.47;59.59
12781;BME280;6454;43.304;24.344;2023-02-15T12:19:01;101730.16;;;9.53;59.43
12781;BME280;6454;43.304;24.344;2023-02-15T12:21:30;101727.22;;;9.54;59.61
12781;BME280;6454;43.304;24.344;2023-02-15T12:24:01;101722.94;;;9.58;60.80
12781;BME280;6454;43.304;24.344;2023-02-15T12:26:32;101718.38;;;9.59;60.16
12781;BME280;6454;43.304;24.344;2023-02-15T12:29:02;101685.88;;;9.47;60.43
12781;BME280;6454;43.304;24.344;2023-02-15T12:31:37;101706.91;;;9.68;59.65
12781;BME280;6454;43.304;24.344;2023-02-15T12:34:11;101708.78;;;9.68;60.18
12781;BME280;6454;43.304;24.344;2023-02-15T12:36:44;101701.13;;;9.65;59.94
12781;BME280;6454;43.304;24.344;2023-02-15T12:39:18;101703.94;;;9.70;59.56
12781;BME280;6454;43.304;24.344;2023-02-15T12:41:57;101692.03;;;9.71;58.83
12781;BME280;6454;43.304;24.344;2023-02-15T12:44:27;101691.88;;;9.78;58.36
12781;BME280;6454;43.304;24.344;2023-02-15T12:46:59;101687.38;;;9.83;57.99
12781;BME280;6454;43.304;24.344;2023-02-15T12:49:29;101688.19;;;9.84;58.01
12781;BME280;6454;43.304;24.344;2023-02-15T12:51:58;101685.75;;;9.82;58.36
12781;BME280;6454;43.304;24.344;2023-02-15T12:54:34;101686.22;;;9.79;59.08
12781;BME280;6454;43.304;24.344;2023-02-15T12:57:22;101689.25;;;9.83;58.30
12781;BME280;6454;43.304;24.344;2023-02-15T12:59:51;101652.16;;;9.55;58.57
12781;BME280;6454;43.304;24.344;2023-02-15T13:02:25;101686.97;;;9.75;58.91
12781;BME280;6454;43.304;24.344;2023-02-15T13:05:17;101685.78;;;9.70;59.73
12781;BME280;6454;43.304;24.344;2023-02-15T13:07:48;101672.91;;;9.78;59.85
12781;BME280;6454;43.304;24.344;2023-02-15T13:10:25;101672.69;;;9.79;57.65
12781;BME280;6454;43.304;24.344;2023-02-15T13:12:52;101670.44;;;9.76;58.98
12781;BME280;6454;43.304;24.344;2023-02-15T13:15:34;101673.81;;;9.83;59.19
12781;BME280;6454;43.304;24.344;2023-02-15T13:18:02;101676.53;;;9.83;59.55
12781;BME280;6454;43.304;24.344;2023-02-15T13:20:32;101670.44;;;9.76;58.00
12781;BME280;6454;43.304;24.344;2023-02-15T13:23:04;101679.16;;;9.78;58.39
12781;BME280;6454;43.304;24.344;2023-02-15T13:25:37;101678.41;;;9.83;58.45
12781;BME280;6454;43.304;24.344;2023-02-15T13:28:13;101675.13;;;9.81;58.00
12781;BME280;6454;43.304;24.344;2023-02-15T13:30:43;101671.03;;;9.78;58.39